createdAt,value
2018-08-03T00:01:22.466Z,11.47
2018-08-03T00:03:49.414Z,11.53
2018-08-03T00:06:16.375Z,11.50
2018-08-03T00:08:43.327Z,11.20
2018-08-03T00:11:10.278Z,11.50
2018-08-03T00:13:37.195Z,11.23
2018-08-03T00:16:04.156Z,10.73
2018-08-03T00:18:31.077Z,10.70
2018-08-03T00:20:57.973Z,10.77
2018-08-03T00:23:24.928Z,10.83
2018-08-03T00:25:51.840Z,9.90
2018-08-03T00:28:18.771Z,10.40
2018-08-03T00:30:45.825Z,13.00
2018-08-03T00:33:12.771Z,11.50
2018-08-03T00:35:39.714Z,11.97
2018-08-03T00:38:06.672Z,11.33
2018-08-03T00:40:33.607Z,11.80
2018-08-03T00:43:00.600Z,11.70
2018-08-03T00:45:27.518Z,10.53
2018-08-03T00:47:54.432Z,11.10
2018-08-03T00:50:21.383Z,11.60
2018-08-03T00:52:48.441Z,11.70
2018-08-03T00:55:15.489Z,11.93
2018-08-03T00:57:42.468Z,12.40
2018-08-03T01:00:09.427Z,12.80
2018-08-03T01:02:36.356Z,13.10
2018-08-03T01:05:04.504Z,12.90
2018-08-03T01:07:31.448Z,12.27
2018-08-03T01:09:58.375Z,11.50
2018-08-03T01:12:25.315Z,12.50
2018-08-03T01:14:52.283Z,11.87
2018-08-03T01:17:19.315Z,11.60
2018-08-03T01:19:46.303Z,11.20
2018-08-03T01:22:13.216Z,11.50
2018-08-03T01:24:40.167Z,12.23
2018-08-03T01:27:07.097Z,12.80
2018-08-03T01:29:34.225Z,13.27
2018-08-03T01:32:01.192Z,13.20
2018-08-03T01:34:28.247Z,13.17
2018-08-03T01:36:55.175Z,13.30
2018-08-03T01:39:22.109Z,12.13
2018-08-03T01:41:49.084Z,13.67
2018-08-03T01:44:16.135Z,12.90
2018-08-03T01:46:43.095Z,13.13
2018-08-03T01:49:10.016Z,12.40
2018-08-03T01:51:36.954Z,14.10
2018-08-03T01:54:03.915Z,12.87
2018-08-03T01:56:30.861Z,12.67
2018-08-03T01:58:57.846Z,12.63
2018-08-03T02:01:24.858Z,13.93
2018-08-03T02:03:52.224Z,13.47
2018-08-03T02:06:19.169Z,12.30
2018-08-03T02:08:46.124Z,12.60
2018-08-03T02:11:13.059Z,13.23
2018-08-03T02:13:40.006Z,13.10
2018-08-03T02:16:06.963Z,12.67
2018-08-03T02:18:33.899Z,12.33
2018-08-03T02:21:00.907Z,11.93
2018-08-03T02:23:27.890Z,12.57
2018-08-03T02:25:54.857Z,12.37
2018-08-03T02:28:21.828Z,12.43
2018-08-03T02:30:48.827Z,13.10
2018-08-03T02:33:15.739Z,13.13
2018-08-03T02:35:42.673Z,12.73
2018-08-03T02:38:09.581Z,12.73
2018-08-03T02:40:36.481Z,12.97
2018-08-03T02:43:03.454Z,12.23
2018-08-03T02:45:30.358Z,13.50
2018-08-03T02:47:57.788Z,13.23
2018-08-03T02:50:24.768Z,12.37
2018-08-03T02:52:51.706Z,12.40
2018-08-03T02:55:18.659Z,12.13
2018-08-03T02:57:45.645Z,12.30
2018-08-03T03:00:12.548Z,12.23
2018-08-03T03:02:39.697Z,12.80
2018-08-03T03:05:06.709Z,12.17
2018-08-03T03:07:33.708Z,13.00
2018-08-03T03:10:00.726Z,12.63
2018-08-03T03:12:27.886Z,12.57
2018-08-03T03:14:54.811Z,13.30
2018-08-03T03:17:21.814Z,13.23
2018-08-03T03:19:48.825Z,13.07
2018-08-03T03:22:15.811Z,12.70
2018-08-03T03:24:42.726Z,12.10
2018-08-03T03:27:09.656Z,13.00
2018-08-03T03:29:36.604Z,12.70
2018-08-03T03:32:03.499Z,14.03
2018-08-03T03:34:30.499Z,13.23
2018-08-03T03:36:57.428Z,13.90
2018-08-03T03:39:24.329Z,12.90
2018-08-03T03:41:51.225Z,13.47
2018-08-03T03:44:18.182Z,14.00
2018-08-03T03:46:45.162Z,13.50
2018-08-03T03:49:12.089Z,13.50
2018-08-03T03:51:39.014Z,13.90
2018-08-03T03:54:05.945Z,13.30
2018-08-03T03:56:32.946Z,14.53
2018-08-03T03:58:59.847Z,13.83
2018-08-03T04:01:26.777Z,12.53
2018-08-03T04:03:54.145Z,13.43
2018-08-03T04:06:21.148Z,13.93
2018-08-03T04:08:48.116Z,13.17
2018-08-03T04:11:15.089Z,12.93
2018-08-03T04:13:42.015Z,14.23
2018-08-03T04:16:08.952Z,14.03
2018-08-03T04:18:35.863Z,13.83
2018-08-03T04:21:02.820Z,13.90
2018-08-03T04:23:29.754Z,13.50
2018-08-03T04:25:56.665Z,14.20
2018-08-03T04:28:23.650Z,14.70
2018-08-03T04:30:50.643Z,19.57
2018-08-03T04:33:17.564Z,16.67
2018-08-03T04:35:44.512Z,15.63
2018-08-03T04:38:11.473Z,22.47
2018-08-03T04:40:38.427Z,16.50
2018-08-03T04:43:05.463Z,15.43
2018-08-03T04:45:32.526Z,13.97
2018-08-03T04:47:59.822Z,15.33
2018-08-03T04:50:26.862Z,15.53
2018-08-03T04:52:53.810Z,14.63
2018-08-03T04:55:21.808Z,14.57
2018-08-03T04:57:48.784Z,15.90
2018-08-03T05:00:15.768Z,16.43
2018-08-03T05:02:42.762Z,13.87
2018-08-03T05:05:10.205Z,14.93
2018-08-03T05:07:37.396Z,14.80
2018-08-03T05:10:04.781Z,14.97
2018-08-03T05:12:31.731Z,14.60
2018-08-03T05:14:58.688Z,14.23
2018-08-03T05:17:25.640Z,14.70
2018-08-03T05:19:52.651Z,14.20
2018-08-03T05:22:19.668Z,14.20
2018-08-03T05:24:46.644Z,14.70
2018-08-03T05:27:13.653Z,13.43
2018-08-03T05:29:40.651Z,14.90
2018-08-03T05:32:07.591Z,14.47
2018-08-03T05:34:34.570Z,14.17
2018-08-03T05:37:01.726Z,13.93
2018-08-03T05:39:28.705Z,13.13
2018-08-03T05:41:55.684Z,13.37
2018-08-03T05:44:22.624Z,13.83
2018-08-03T05:46:49.670Z,13.93
2018-08-03T05:49:16.681Z,13.53
2018-08-03T05:51:43.677Z,13.80
2018-08-03T05:54:10.628Z,13.47
2018-08-03T05:56:37.589Z,12.77
2018-08-03T05:59:04.611Z,13.30
2018-08-03T06:01:31.560Z,13.63
2018-08-03T06:03:58.549Z,13.80
2018-08-03T06:06:25.448Z,14.10
2018-08-03T06:08:52.426Z,13.80
2018-08-03T06:11:19.364Z,13.57
2018-08-03T06:13:46.300Z,14.60
2018-08-03T06:16:13.208Z,13.93
2018-08-03T06:18:40.152Z,14.50
2018-08-03T06:21:07.188Z,12.77
2018-08-03T06:23:34.163Z,12.87
2018-08-03T06:26:01.089Z,12.30
2018-08-03T06:28:28.090Z,12.27
2018-08-03T06:30:54.980Z,12.93
2018-08-03T06:33:22.022Z,13.60
2018-08-03T06:35:49.021Z,13.23
2018-08-03T06:38:16.085Z,12.60
2018-08-03T06:40:43.065Z,11.57
2018-08-03T06:43:10.154Z,10.93
2018-08-03T06:45:37.181Z,11.90
2018-08-03T06:48:04.128Z,10.57
2018-08-03T06:50:31.087Z,9.77
2018-08-03T06:52:58.112Z,10.73
2018-08-03T06:55:25.079Z,10.03
2018-08-03T06:57:52.088Z,9.70
2018-08-03T07:00:19.074Z,10.07
2018-08-03T07:02:46.830Z,8.50
2018-08-03T07:05:13.919Z,8.80
2018-08-03T07:07:40.887Z,8.20
2018-08-03T07:10:08.471Z,8.50
2018-08-03T07:12:35.434Z,7.97
2018-08-03T07:15:02.365Z,8.67
2018-08-03T07:17:29.327Z,8.60
2018-08-03T07:19:56.410Z,8.20
2018-08-03T07:22:23.277Z,8.10
2018-08-03T07:24:50.240Z,8.40
2018-08-03T07:27:17.306Z,8.50
2018-08-03T07:29:44.334Z,6.03
2018-08-03T07:32:11.294Z,6.87
2018-08-03T07:34:38.205Z,7.30
2018-08-03T07:37:05.454Z,7.43
2018-08-03T07:39:32.411Z,6.50
2018-08-03T07:42:00.929Z,6.80
2018-08-03T07:44:27.844Z,6.63
2018-08-03T07:46:54.781Z,6.83
2018-08-03T07:49:21.735Z,6.80
2018-08-03T07:51:48.681Z,6.50
2018-08-03T07:54:15.854Z,7.10
2018-08-03T07:56:42.926Z,6.60
2018-08-03T07:59:09.903Z,6.70
2018-08-03T08:01:36.962Z,7.40
2018-08-03T08:04:03.959Z,6.30
2018-08-03T08:06:30.860Z,6.60
2018-08-03T08:08:57.812Z,7.47
2018-08-03T08:11:24.742Z,7.00
2018-08-03T08:13:51.676Z,6.60
2018-08-03T08:16:18.668Z,6.73
2018-08-03T08:18:45.614Z,7.40
2018-08-03T08:21:12.572Z,6.50
2018-08-03T08:23:39.576Z,7.50
2018-08-03T08:26:06.769Z,6.53
2018-08-03T08:28:33.657Z,6.53
2018-08-03T08:31:00.635Z,6.90
2018-08-03T08:33:27.618Z,6.70
2018-08-03T08:35:54.620Z,7.20
2018-08-03T08:38:21.588Z,7.37
2018-08-03T08:40:48.553Z,7.27
2018-08-03T08:43:15.537Z,6.77
2018-08-03T08:45:42.520Z,6.93
2018-08-03T08:48:09.439Z,7.53
2018-08-03T08:50:37.414Z,7.50
2018-08-03T08:53:04.380Z,6.57
2018-08-03T08:55:31.324Z,7.33
2018-08-03T08:57:58.302Z,6.57
2018-08-03T09:00:25.300Z,6.23
2018-08-03T09:02:52.267Z,7.30
2018-08-03T09:05:19.195Z,6.50
2018-08-03T09:07:46.248Z,6.40
2018-08-03T09:10:13.203Z,6.50
2018-08-03T09:12:40.133Z,6.50
2018-08-03T09:15:07.128Z,6.90
2018-08-03T09:17:34.091Z,6.43
2018-08-03T09:20:01.128Z,6.97
2018-08-03T09:22:28.031Z,5.90
2018-08-03T09:24:54.948Z,6.07
2018-08-03T09:27:21.897Z,6.10
2018-08-03T09:29:48.856Z,6.03
2018-08-03T09:32:15.809Z,6.60
2018-08-03T09:34:42.776Z,5.87
2018-08-03T09:37:09.721Z,6.67
2018-08-03T09:39:36.647Z,6.27
2018-08-03T09:42:03.547Z,5.63
2018-08-03T09:44:30.517Z,6.70
2018-08-03T09:46:57.435Z,6.40
2018-08-03T09:49:24.395Z,10.13
2018-08-03T09:51:51.364Z,7.83
2018-08-03T09:54:18.326Z,6.87
2018-08-03T09:56:45.286Z,6.90
2018-08-03T09:59:12.283Z,6.60
2018-08-03T10:01:39.258Z,7.50
2018-08-03T10:04:06.148Z,6.77
2018-08-03T10:06:33.099Z,7.17
2018-08-03T10:09:00.064Z,6.60
2018-08-03T10:11:27.009Z,7.60
2018-08-03T10:13:53.931Z,6.50
2018-08-03T10:16:20.886Z,8.17
2018-08-03T10:18:47.875Z,6.60
2018-08-03T10:21:14.868Z,6.87
2018-08-03T10:23:41.836Z,7.30
2018-08-03T10:26:08.817Z,8.70
2018-08-03T10:28:35.767Z,8.40
2018-08-03T10:31:02.736Z,7.50
2018-08-03T10:33:29.672Z,7.03
2018-08-03T10:35:56.598Z,7.20
2018-08-03T10:38:23.550Z,6.97
2018-08-03T10:40:50.670Z,6.83
2018-08-03T10:43:17.678Z,7.10
2018-08-03T10:45:44.688Z,6.60
2018-08-03T10:48:11.652Z,7.10
2018-08-03T10:50:38.684Z,7.50
2018-08-03T10:53:06.041Z,7.00
2018-08-03T10:55:33.052Z,6.67
2018-08-03T10:57:59.952Z,6.63
2018-08-03T11:00:28.407Z,7.53
2018-08-03T11:02:56.404Z,7.27
2018-08-03T11:05:23.363Z,6.60
2018-08-03T11:07:50.416Z,6.67
2018-08-03T11:10:17.558Z,6.80
2018-08-03T11:12:45.372Z,6.73
2018-08-03T11:15:12.335Z,8.43
2018-08-03T11:17:39.260Z,7.10
2018-08-03T11:20:06.251Z,6.87
2018-08-03T11:22:33.420Z,7.27
2018-08-03T11:25:00.677Z,7.00
2018-08-03T11:27:27.596Z,6.43
2018-08-03T11:29:54.826Z,6.83
2018-08-03T11:32:21.858Z,6.33
2018-08-03T11:34:48.958Z,6.60
2018-08-03T11:37:16.238Z,6.63
2018-08-03T11:39:43.185Z,6.23
2018-08-03T11:42:10.201Z,6.60
2018-08-03T11:44:37.143Z,6.27
2018-08-03T11:47:04.122Z,6.63
2018-08-03T11:49:31.057Z,6.80
2018-08-03T11:51:58.024Z,6.73
2018-08-03T11:54:25.184Z,6.73
2018-08-03T11:56:52.123Z,6.37
2018-08-03T11:59:19.166Z,7.13
2018-08-03T12:01:46.205Z,6.00
2018-08-03T12:04:13.205Z,5.80
2018-08-03T12:06:40.279Z,5.60
2018-08-03T12:09:07.464Z,5.77
2018-08-03T12:11:34.456Z,6.43
2018-08-03T12:14:01.459Z,6.50
2018-08-03T12:16:28.349Z,6.37
2018-08-03T12:18:55.300Z,5.87
2018-08-03T12:21:22.279Z,6.53
2018-08-03T12:23:49.284Z,5.90
2018-08-03T12:26:16.407Z,6.17
2018-08-03T12:28:43.373Z,6.63
2018-08-03T12:31:10.349Z,5.97
2018-08-03T12:33:37.252Z,5.90
2018-08-03T12:36:04.391Z,6.10
2018-08-03T12:38:31.355Z,6.00
2018-08-03T12:40:58.363Z,5.37
2018-08-03T12:43:25.335Z,5.20
2018-08-03T12:45:52.294Z,5.90
2018-08-03T12:48:19.348Z,5.70
2018-08-03T12:50:46.423Z,5.10
2018-08-03T12:53:13.720Z,5.50
2018-08-03T12:55:40.956Z,5.43
2018-08-03T12:58:07.896Z,5.20
2018-08-03T13:00:34.844Z,5.20
2018-08-03T13:03:01.782Z,6.60
2018-08-03T13:05:28.772Z,5.23
2018-08-03T13:07:55.894Z,5.33
2018-08-03T13:10:22.618Z,6.20
2018-08-03T13:12:49.655Z,5.70
2018-08-03T13:15:16.662Z,5.93
2018-08-03T13:17:43.576Z,6.57
2018-08-03T13:20:10.529Z,5.40
2018-08-03T13:22:37.510Z,5.10
2018-08-03T13:25:04.637Z,5.63
2018-08-03T13:27:31.654Z,5.17
2018-08-03T13:29:58.629Z,5.20
2018-08-03T13:32:25.556Z,5.90
2018-08-03T13:34:52.492Z,6.23
2018-08-03T13:37:19.444Z,6.17
2018-08-03T13:39:46.479Z,5.53
2018-08-03T13:42:13.437Z,6.03
2018-08-03T13:44:40.446Z,5.80
2018-08-03T13:47:07.373Z,6.63
2018-08-03T13:49:34.365Z,5.90
2018-08-03T13:52:01.407Z,5.60
2018-08-03T13:54:28.354Z,5.60
2018-08-03T13:56:55.259Z,5.90
2018-08-03T13:59:22.229Z,6.17
2018-08-03T14:02:00.985Z,5.03
2018-08-03T14:04:27.907Z,5.47
2018-08-03T14:06:54.836Z,6.10
2018-08-03T14:09:21.839Z,5.13
2018-08-03T14:11:48.780Z,7.07
2018-08-03T14:14:15.793Z,6.00
2018-08-03T14:16:42.784Z,6.03
2018-08-03T14:19:09.809Z,6.13
2018-08-03T14:21:36.760Z,5.73
2018-08-03T14:24:03.719Z,5.23
2018-08-03T14:26:30.753Z,5.23
2018-08-03T14:28:58.135Z,5.60
2018-08-03T14:31:25.153Z,5.30
2018-08-03T14:33:52.071Z,6.23
2018-08-03T14:36:19.046Z,5.70
2018-08-03T14:38:46.053Z,5.57
2018-08-03T14:41:13.099Z,5.40
2018-08-03T14:43:40.057Z,6.77
2018-08-03T14:46:07.054Z,6.00
2018-08-03T14:48:34.052Z,6.50
2018-08-03T14:51:00.995Z,6.80
2018-08-03T14:53:27.962Z,8.33
2018-08-03T14:55:54.911Z,6.53
2018-08-03T14:58:21.878Z,5.67
2018-08-03T15:00:48.841Z,6.75
2018-08-03T15:03:16.036Z,6.60
2018-08-03T15:05:43.087Z,6.00
2018-08-03T15:08:10.143Z,6.13
2018-08-03T15:10:37.082Z,6.43
2018-08-03T15:13:04.220Z,6.63
2018-08-03T15:15:31.174Z,6.37
2018-08-03T15:17:58.106Z,7.10
2018-08-03T15:20:25.086Z,5.90
2018-08-03T15:22:52.012Z,5.80
2018-08-03T15:25:18.988Z,7.40
2018-08-03T15:27:45.926Z,8.97
2018-08-03T15:30:12.920Z,9.87
2018-08-03T15:32:40.055Z,7.60
2018-08-03T15:35:07.219Z,6.33
2018-08-03T15:37:34.246Z,6.83
2018-08-03T15:40:01.356Z,6.47
2018-08-03T15:42:28.977Z,6.63
2018-08-03T15:44:56.072Z,6.87
2018-08-03T15:47:23.447Z,6.60
2018-08-03T15:49:50.517Z,6.27
2018-08-03T15:52:17.608Z,5.87
2018-08-03T15:54:44.584Z,5.73
2018-08-03T15:57:11.592Z,6.40
2018-08-03T15:59:38.565Z,5.93
2018-08-03T16:02:05.813Z,5.90
2018-08-03T16:04:32.740Z,5.97
2018-08-03T16:06:59.800Z,6.07
2018-08-03T16:09:26.793Z,5.00
2018-08-03T16:11:53.769Z,5.60
2018-08-03T16:14:20.780Z,5.80
2018-08-03T16:16:47.754Z,5.63
2018-08-03T16:19:14.824Z,5.80
2018-08-03T16:21:41.803Z,5.50
2018-08-03T16:24:08.730Z,5.80
2018-08-03T16:26:35.647Z,5.47
2018-08-03T16:29:02.693Z,5.50
2018-08-03T16:31:29.632Z,5.50
2018-08-03T16:33:56.755Z,5.73
2018-08-03T16:36:23.806Z,5.27
2018-08-03T16:38:50.857Z,5.50
2018-08-03T16:41:17.896Z,5.27
2018-08-03T16:43:44.867Z,5.63
2018-08-03T16:46:11.781Z,5.07
2018-08-03T16:48:38.724Z,5.83
2018-08-03T16:51:06.239Z,5.73
2018-08-03T16:53:33.201Z,5.53
2018-08-03T16:56:00.211Z,5.70
2018-08-03T16:58:27.454Z,5.70
2018-08-03T17:00:54.471Z,5.40
2018-08-03T17:03:21.477Z,5.60
2018-08-03T17:05:48.472Z,5.70
2018-08-03T17:08:15.574Z,5.93
2018-08-03T17:10:42.619Z,5.53
2018-08-03T17:13:09.680Z,5.33
2018-08-03T17:15:36.536Z,5.20
2018-08-03T17:18:03.443Z,5.57
2018-08-03T17:20:30.543Z,5.73
2018-08-03T17:22:57.478Z,6.13
2018-08-03T17:25:24.451Z,5.77
2018-08-03T17:27:51.467Z,6.47
2018-08-03T17:30:18.456Z,6.13
2018-08-03T17:32:45.585Z,5.67
2018-08-03T17:35:12.591Z,6.57
2018-08-03T17:37:39.491Z,6.40
2018-08-03T17:40:06.422Z,5.47
2018-08-03T17:42:33.407Z,5.70
2018-08-03T17:45:00.443Z,7.00
2018-08-03T17:47:27.355Z,6.13
2018-08-03T17:49:54.329Z,6.27
2018-08-03T17:52:21.309Z,5.93
2018-08-03T17:54:48.338Z,5.43
2018-08-03T17:57:15.381Z,5.53
2018-08-03T17:59:42.489Z,5.80
2018-08-03T18:02:09.414Z,5.37
2018-08-03T18:04:36.466Z,6.13
2018-08-03T18:07:03.485Z,6.57
2018-08-03T18:09:30.507Z,6.13
2018-08-03T18:11:57.448Z,5.70
2018-08-03T18:14:24.456Z,6.33
2018-08-03T18:16:51.745Z,6.37
2018-08-03T18:19:18.743Z,6.10
2018-08-03T18:21:46.103Z,6.40
2018-08-03T18:24:13.047Z,5.70
2018-08-03T18:26:40.019Z,6.10
2018-08-03T18:29:06.958Z,6.13
2018-08-03T18:31:33.909Z,6.00
2018-08-03T18:34:00.887Z,6.27
2018-08-03T18:36:27.881Z,6.47
2018-08-03T18:38:54.795Z,6.70
2018-08-03T18:41:21.860Z,6.63
2018-08-03T18:43:48.944Z,7.17
2018-08-03T18:46:16.167Z,6.90
2018-08-03T18:48:43.424Z,6.70
2018-08-03T18:51:10.441Z,7.10
2018-08-03T18:53:37.452Z,7.30
2018-08-03T18:56:04.508Z,7.60
2018-08-03T18:58:31.535Z,7.53
2018-08-03T19:00:58.470Z,7.63
2018-08-03T19:03:25.422Z,8.00
2018-08-03T19:05:52.421Z,7.53
2018-08-03T19:08:19.395Z,7.10
2018-08-03T19:10:47.178Z,7.30
2018-08-03T19:13:14.292Z,7.33
2018-08-03T19:15:41.354Z,7.70
2018-08-03T19:18:08.275Z,8.10
2018-08-03T19:20:35.220Z,8.80
2018-08-03T19:23:02.192Z,8.70
2018-08-03T19:25:29.123Z,8.17
2018-08-03T19:27:56.100Z,8.30
2018-08-03T19:30:23.128Z,8.03
2018-08-03T19:32:50.092Z,8.50
2018-08-03T19:35:17.131Z,8.23
2018-08-03T19:37:44.116Z,8.33
2018-08-03T19:40:11.079Z,7.87
2018-08-03T19:42:38.033Z,7.67
2018-08-03T19:45:05.335Z,8.30
2018-08-03T19:47:32.243Z,9.20
2018-08-03T19:50:00.200Z,8.70
2018-08-03T19:52:27.139Z,10.07
2018-08-03T19:54:54.691Z,10.20
2018-08-03T19:57:21.680Z,9.50
2018-08-03T19:59:48.844Z,8.67
2018-08-03T20:02:15.984Z,10.50
2018-08-03T20:04:42.929Z,11.17
2018-08-03T20:07:09.859Z,11.27
2018-08-03T20:09:36.814Z,10.90
2018-08-03T20:12:03.769Z,10.97
2018-08-03T20:14:30.895Z,10.37
2018-08-03T20:16:57.807Z,11.57
2018-08-03T20:19:24.740Z,11.30
2018-08-03T20:21:51.719Z,11.60
2018-08-03T20:24:18.689Z,12.00
2018-08-03T20:26:45.798Z,10.70
2018-08-03T20:29:12.781Z,11.60
2018-08-03T20:31:39.704Z,11.03
2018-08-03T20:34:06.669Z,10.90
2018-08-03T20:36:33.681Z,11.53
2018-08-03T20:39:00.628Z,11.70
2018-08-03T20:41:28.201Z,10.70
2018-08-03T20:43:55.174Z,10.70
2018-08-03T20:46:22.106Z,11.00
2018-08-03T20:48:49.219Z,10.40
2018-08-03T20:51:16.212Z,10.50
2018-08-03T20:53:43.120Z,10.50
2018-08-03T20:56:10.040Z,10.53
2018-08-03T20:58:37.013Z,10.57
2018-08-03T21:01:03.979Z,10.50
2018-08-03T21:03:30.923Z,10.03
2018-08-03T21:05:57.850Z,9.30
2018-08-03T21:08:24.812Z,9.43
2018-08-03T21:10:51.738Z,9.23
2018-08-03T21:13:18.702Z,8.47
2018-08-03T21:15:45.882Z,8.60
2018-08-03T21:18:12.824Z,7.90
2018-08-03T21:20:39.753Z,7.87
2018-08-03T21:23:06.686Z,8.97
2018-08-03T21:25:33.635Z,9.13
2018-08-03T21:28:00.562Z,8.90
2018-08-03T21:30:27.512Z,7.87
2018-08-03T21:32:54.490Z,9.43
2018-08-03T21:35:21.436Z,8.73
2018-08-03T21:37:48.430Z,8.87
2018-08-03T21:40:15.380Z,8.47
2018-08-03T21:42:42.319Z,8.50
2018-08-03T21:45:09.278Z,8.20
2018-08-03T21:47:36.244Z,9.10
2018-08-03T21:50:03.189Z,9.67
2018-08-03T21:52:30.279Z,8.87
2018-08-03T21:54:57.273Z,8.83
2018-08-03T21:57:24.217Z,8.33
2018-08-03T21:59:51.161Z,8.73
2018-08-03T22:02:18.116Z,9.50
2018-08-03T22:04:45.153Z,8.40
2018-08-03T22:07:12.100Z,9.03
2018-08-03T22:09:39.038Z,9.70
2018-08-03T22:12:06.060Z,8.63
2018-08-03T22:14:32.969Z,8.10
2018-08-03T22:16:59.941Z,8.20
2018-08-03T22:19:26.908Z,8.20
2018-08-03T22:21:53.869Z,8.20
2018-08-03T22:24:21.076Z,8.43
2018-08-03T22:26:47.931Z,7.10
2018-08-03T22:29:15.020Z,7.23
2018-08-03T22:31:41.961Z,7.77
2018-08-03T22:34:08.884Z,6.97
2018-08-03T22:36:35.936Z,6.70
2018-08-03T22:39:04.376Z,7.10
2018-08-03T22:41:31.278Z,6.20
2018-08-03T22:43:58.220Z,6.80
2018-08-03T22:46:25.157Z,6.97
2018-08-03T22:48:52.089Z,6.30
2018-08-03T22:51:19.044Z,6.40
2018-08-03T22:53:45.998Z,6.23
2018-08-03T22:56:12.936Z,6.60
2018-08-03T22:58:39.885Z,6.00
2018-08-03T23:01:07.072Z,6.20
2018-08-03T23:03:34.026Z,5.87
2018-08-03T23:06:01.097Z,6.23
2018-08-03T23:08:28.042Z,6.40
2018-08-03T23:10:55.028Z,6.13
2018-08-03T23:13:21.972Z,5.83
2018-08-03T23:15:48.932Z,6.20
2018-08-03T23:18:15.979Z,6.13
2018-08-03T23:20:42.968Z,6.90
2018-08-03T23:23:09.953Z,6.30
2018-08-03T23:25:36.897Z,5.90
2018-08-03T23:28:03.917Z,5.83
2018-08-03T23:30:30.832Z,5.83
2018-08-03T23:32:57.769Z,5.90
2018-08-03T23:35:24.731Z,6.07
2018-08-03T23:37:51.645Z,5.27
2018-08-03T23:40:18.613Z,5.00
2018-08-03T23:42:45.588Z,5.30
2018-08-03T23:45:12.544Z,5.03
2018-08-03T23:47:39.496Z,4.53
2018-08-03T23:50:12.948Z,5.50
2018-08-03T23:52:40.341Z,5.20
2018-08-03T23:55:07.383Z,4.87
2018-08-03T23:57:34.325Z,4.90
